createdAt,value
2018-09-16T00:01:07.609Z,99.90
2018-09-16T00:03:35.337Z,99.90
2018-09-16T00:06:03.097Z,99.90
2018-09-16T00:08:30.870Z,99.90
2018-09-16T00:10:58.665Z,99.90
2018-09-16T00:13:26.412Z,99.90
2018-09-16T00:15:54.358Z,99.90
2018-09-16T00:18:22.077Z,99.90
2018-09-16T00:20:49.829Z,99.90
2018-09-16T00:23:17.576Z,99.90
2018-09-16T00:25:45.286Z,99.90
2018-09-16T00:28:13.500Z,99.90
2018-09-16T00:30:41.225Z,99.90
2018-09-16T00:33:08.969Z,99.90
2018-09-16T00:35:36.777Z,99.90
2018-09-16T00:38:04.552Z,99.90
2018-09-16T00:40:32.285Z,99.90
2018-09-16T00:43:00.049Z,99.90
2018-09-16T00:45:27.801Z,99.90
2018-09-16T00:47:55.566Z,99.90
2018-09-16T00:50:23.326Z,99.90
2018-09-16T00:52:51.041Z,99.90
2018-09-16T00:55:18.780Z,99.90
2018-09-16T00:57:46.485Z,99.90
2018-09-16T01:00:14.233Z,99.90
2018-09-16T01:02:41.975Z,99.90
2018-09-16T01:05:09.779Z,99.90
2018-09-16T01:07:37.509Z,99.90
2018-09-16T01:10:05.337Z,99.90
2018-09-16T01:12:33.138Z,99.90
2018-09-16T01:15:01.170Z,99.90
2018-09-16T01:17:28.920Z,99.90
2018-09-16T01:19:56.793Z,99.90
2018-09-16T01:22:24.555Z,99.90
2018-09-16T01:24:52.277Z,99.90
2018-09-16T01:27:20.012Z,99.90
2018-09-16T01:29:47.722Z,99.90
2018-09-16T01:32:15.462Z,99.90
2018-09-16T01:34:43.266Z,99.90
2018-09-16T01:37:16.494Z,99.90
2018-09-16T01:39:44.268Z,99.90
2018-09-16T01:42:12.070Z,99.90
2018-09-16T01:44:39.817Z,99.90
2018-09-16T01:47:07.566Z,99.90
2018-09-16T01:49:35.306Z,99.90
2018-09-16T01:52:03.101Z,99.90
2018-09-16T01:54:30.864Z,99.90
2018-09-16T01:56:58.628Z,99.90
2018-09-16T01:59:26.403Z,99.90
2018-09-16T02:01:54.746Z,99.90
2018-09-16T02:04:22.490Z,99.90
2018-09-16T02:06:50.375Z,99.90
2018-09-16T02:09:18.185Z,99.90
2018-09-16T02:11:45.946Z,99.90
2018-09-16T02:14:13.693Z,99.90
2018-09-16T02:16:41.445Z,99.90
2018-09-16T02:19:09.173Z,99.90
2018-09-16T02:21:36.910Z,99.90
2018-09-16T02:24:04.653Z,99.90
2018-09-16T02:26:32.388Z,99.90
2018-09-16T02:29:00.097Z,99.90
2018-09-16T02:31:27.865Z,99.90
2018-09-16T02:33:55.601Z,99.90
2018-09-16T02:36:23.396Z,99.90
2018-09-16T02:38:51.246Z,99.90
2018-09-16T02:41:18.961Z,99.90
2018-09-16T02:43:46.841Z,99.90
2018-09-16T02:46:14.589Z,99.90
2018-09-16T02:48:42.373Z,99.90
2018-09-16T02:51:10.085Z,99.90
2018-09-16T02:53:37.813Z,99.90
2018-09-16T02:56:05.700Z,99.90
2018-09-16T02:58:33.494Z,99.90
2018-09-16T03:01:01.793Z,99.90
2018-09-16T03:03:29.570Z,99.90
2018-09-16T03:05:57.297Z,99.90
2018-09-16T03:08:26.477Z,99.90
2018-09-16T03:10:54.197Z,99.90
2018-09-16T03:13:21.961Z,99.90
2018-09-16T03:15:49.796Z,99.90
2018-09-16T03:18:17.541Z,99.90
2018-09-16T03:20:45.330Z,99.90
2018-09-16T03:23:13.089Z,99.90
2018-09-16T03:25:40.826Z,99.90
2018-09-16T03:28:08.569Z,99.90
2018-09-16T03:30:36.315Z,99.90
2018-09-16T03:33:04.058Z,99.90
2018-09-16T03:35:32.297Z,99.90
2018-09-16T03:38:00.033Z,99.90
2018-09-16T03:40:27.773Z,99.90
2018-09-16T03:42:55.492Z,99.90
2018-09-16T03:45:23.272Z,99.90
2018-09-16T03:47:50.947Z,99.90
2018-09-16T03:50:18.689Z,99.90
2018-09-16T03:52:46.424Z,99.90
2018-09-16T03:55:14.158Z,99.90
2018-09-16T03:57:41.905Z,99.90
2018-09-16T04:00:09.673Z,99.90
2018-09-16T04:02:38.054Z,99.90
2018-09-16T04:05:05.797Z,99.90
2018-09-16T04:07:33.585Z,99.90
2018-09-16T04:10:01.326Z,99.90
2018-09-16T04:12:29.075Z,99.90
2018-09-16T04:14:56.800Z,99.90
2018-09-16T04:17:24.577Z,99.90
2018-09-16T04:19:52.301Z,99.90
2018-09-16T04:22:20.077Z,99.90
2018-09-16T04:24:47.821Z,99.90
2018-09-16T04:27:15.565Z,99.90
2018-09-16T04:29:43.302Z,99.90
2018-09-16T04:32:11.074Z,99.90
2018-09-16T04:34:38.806Z,99.90
2018-09-16T04:37:06.578Z,99.90
2018-09-16T04:39:34.315Z,99.90
2018-09-16T04:42:02.061Z,99.90
2018-09-16T04:44:29.858Z,99.90
2018-09-16T04:46:57.571Z,99.90
2018-09-16T04:49:25.301Z,99.90
2018-09-16T04:51:53.053Z,99.90
2018-09-16T04:54:20.782Z,99.90
2018-09-16T04:56:48.490Z,99.90
2018-09-16T04:59:16.225Z,99.90
2018-09-16T05:01:43.938Z,99.90
2018-09-16T05:04:11.722Z,99.90
2018-09-16T05:06:39.456Z,99.90
2018-09-16T05:09:07.993Z,99.90
2018-09-16T05:11:35.834Z,99.90
2018-09-16T05:14:03.626Z,99.90
2018-09-16T05:16:31.461Z,99.90
2018-09-16T05:18:59.206Z,99.90
2018-09-16T05:21:26.951Z,99.90
2018-09-16T05:23:54.681Z,99.90
2018-09-16T05:26:22.413Z,99.90
2018-09-16T05:28:50.127Z,99.90
2018-09-16T05:31:17.889Z,99.90
2018-09-16T05:33:45.602Z,99.90
2018-09-16T05:36:14.585Z,99.90
2018-09-16T05:38:43.102Z,99.90
2018-09-16T05:41:12.433Z,99.90
2018-09-16T05:43:41.439Z,99.90
2018-09-16T05:46:09.873Z,99.90
2018-09-16T05:48:38.961Z,99.90
2018-09-16T05:51:07.854Z,99.90
2018-09-16T05:53:36.679Z,99.90
2018-09-16T05:56:04.757Z,99.90
2018-09-16T05:58:33.280Z,99.90
2018-09-16T06:01:02.374Z,99.90
2018-09-16T06:03:32.389Z,99.90
2018-09-16T06:06:00.856Z,99.90
2018-09-16T06:08:30.714Z,99.90
2018-09-16T06:10:59.108Z,99.90
2018-09-16T06:13:28.549Z,99.90
2018-09-16T06:15:57.448Z,99.90
2018-09-16T06:18:26.456Z,99.90
2018-09-16T06:20:55.590Z,99.90
2018-09-16T06:23:24.735Z,99.90
2018-09-16T06:25:52.521Z,99.90
2018-09-16T06:28:20.238Z,99.40
2018-09-16T06:30:49.088Z,98.50
2018-09-16T06:33:19.018Z,97.50
2018-09-16T06:35:46.961Z,96.70
2018-09-16T06:38:16.073Z,95.70
2018-09-16T06:40:45.562Z,95.90
2018-09-16T06:43:14.602Z,95.30
2018-09-16T06:45:43.903Z,94.80
2018-09-16T06:48:13.478Z,93.10
2018-09-16T06:50:43.031Z,93.10
2018-09-16T06:53:12.173Z,91.70
2018-09-16T06:55:41.801Z,91.00
2018-09-16T06:58:10.755Z,90.30
2018-09-16T07:00:39.998Z,85.60
2018-09-16T07:03:09.034Z,86.60
2018-09-16T07:05:38.200Z,89.00
2018-09-16T07:08:06.678Z,88.70
2018-09-16T07:10:35.489Z,86.60
2018-09-16T07:13:04.457Z,84.90
2018-09-16T07:15:32.337Z,90.60
2018-09-16T07:18:00.765Z,88.70
2018-09-16T07:20:29.217Z,89.90
2018-09-16T07:22:58.089Z,88.50
2018-09-16T07:25:27.147Z,88.00
2018-09-16T07:27:56.126Z,86.40
2018-09-16T07:30:24.755Z,89.10
2018-09-16T07:32:55.062Z,87.70
2018-09-16T07:35:22.813Z,88.70
2018-09-16T07:37:50.566Z,90.30
2018-09-16T07:40:18.294Z,83.40
2018-09-16T07:42:47.035Z,83.60
2018-09-16T07:45:15.296Z,86.00
2018-09-16T07:47:44.767Z,89.50
2018-09-16T07:50:13.898Z,89.70
2018-09-16T07:52:44.514Z,82.00
2018-09-16T07:55:12.389Z,85.40
2018-09-16T07:57:41.524Z,83.90
2018-09-16T08:00:10.349Z,83.70
2018-09-16T08:02:39.089Z,81.30
2018-09-16T08:05:07.980Z,82.30
2018-09-16T08:07:35.757Z,84.20
2018-09-16T08:10:04.434Z,76.90
2018-09-16T08:12:32.906Z,77.20
2018-09-16T08:15:01.414Z,78.00
2018-09-16T08:17:29.162Z,83.80
2018-09-16T08:19:57.534Z,81.00
2018-09-16T08:22:26.086Z,78.20
2018-09-16T08:24:55.110Z,79.40
2018-09-16T08:27:24.352Z,84.90
2018-09-16T08:29:52.126Z,79.70
2018-09-16T08:32:20.029Z,82.10
2018-09-16T08:34:48.508Z,78.80
2018-09-16T08:37:16.902Z,78.50
2018-09-16T08:39:45.318Z,80.00
2018-09-16T08:42:14.673Z,77.80
2018-09-16T08:44:42.449Z,75.00
2018-09-16T08:47:11.527Z,82.60
2018-09-16T08:49:40.835Z,77.40
2018-09-16T08:52:10.336Z,77.40
2018-09-16T08:54:38.703Z,80.80
2018-09-16T08:57:06.832Z,75.60
2018-09-16T08:59:35.685Z,75.30
2018-09-16T09:02:05.877Z,77.10
2018-09-16T09:04:34.773Z,75.30
2018-09-16T09:07:02.573Z,77.50
2018-09-16T09:09:30.914Z,79.00
2018-09-16T09:11:59.241Z,78.30
2018-09-16T09:14:28.591Z,76.20
2018-09-16T09:16:57.114Z,75.10
2018-09-16T09:19:26.186Z,77.00
2018-09-16T09:21:55.132Z,81.10
2018-09-16T09:24:23.530Z,79.20
2018-09-16T09:26:51.273Z,81.70
2018-09-16T09:29:19.074Z,83.90
2018-09-16T09:31:46.838Z,88.10
2018-09-16T09:34:14.721Z,84.70
2018-09-16T09:36:42.543Z,85.50
2018-09-16T09:39:12.129Z,80.60
2018-09-16T09:41:39.877Z,81.80
2018-09-16T09:44:07.673Z,82.10
2018-09-16T09:46:35.442Z,83.40
2018-09-16T09:49:03.161Z,80.80
2018-09-16T09:51:30.994Z,80.40
2018-09-16T09:53:58.766Z,81.70
2018-09-16T09:56:26.989Z,82.80
2018-09-16T09:58:54.803Z,78.90
2018-09-16T10:01:22.464Z,80.30
2018-09-16T10:03:50.388Z,81.20
2018-09-16T10:06:18.137Z,78.00
2018-09-16T10:08:46.381Z,79.10
2018-09-16T10:11:14.142Z,77.60
2018-09-16T10:13:41.953Z,77.60
2018-09-16T10:16:09.730Z,79.90
2018-09-16T10:18:37.449Z,79.30
2018-09-16T10:21:05.197Z,76.60
2018-09-16T10:23:32.958Z,78.50
2018-09-16T10:26:00.717Z,79.60
2018-09-16T10:28:28.510Z,79.00
2018-09-16T10:30:56.273Z,79.90
2018-09-16T10:33:24.018Z,79.20
2018-09-16T10:35:51.730Z,78.40
2018-09-16T10:38:19.478Z,76.50
2018-09-16T10:40:47.273Z,75.80
2018-09-16T10:43:15.043Z,75.50
2018-09-16T10:45:42.837Z,73.90
2018-09-16T10:48:10.601Z,73.90
2018-09-16T10:50:38.317Z,72.60
2018-09-16T10:53:06.365Z,73.10
2018-09-16T10:55:34.089Z,75.00
2018-09-16T10:58:03.600Z,71.90
2018-09-16T11:00:32.798Z,71.70
2018-09-16T11:03:01.279Z,70.60
2018-09-16T11:05:29.825Z,68.30
2018-09-16T11:07:58.840Z,73.20
2018-09-16T11:10:28.120Z,73.00
2018-09-16T11:12:57.870Z,71.40
2018-09-16T11:15:26.069Z,73.80
2018-09-16T11:17:54.709Z,72.90
2018-09-16T11:20:23.469Z,71.70
2018-09-16T11:22:52.816Z,73.70
2018-09-16T11:25:21.709Z,70.30
2018-09-16T11:27:49.932Z,70.70
2018-09-16T11:30:18.339Z,69.60
2018-09-16T11:32:46.498Z,72.70
2018-09-16T11:35:15.481Z,70.50
2018-09-16T11:37:45.646Z,70.20
2018-09-16T11:40:13.417Z,71.50
2018-09-16T11:42:42.713Z,70.60
2018-09-16T11:45:11.110Z,69.00
2018-09-16T11:47:39.617Z,68.90
2018-09-16T11:50:08.607Z,70.30
2018-09-16T11:52:37.589Z,69.60
2018-09-16T11:55:06.916Z,70.40
2018-09-16T11:57:34.657Z,69.20
2018-09-16T12:00:02.449Z,71.80
2018-09-16T12:02:30.166Z,70.60
2018-09-16T12:04:57.905Z,69.70
2018-09-16T12:07:25.628Z,70.60
2018-09-16T12:09:53.373Z,70.80
2018-09-16T12:12:21.110Z,68.70
2018-09-16T12:14:48.826Z,70.30
2018-09-16T12:17:16.586Z,69.50
2018-09-16T12:19:44.313Z,70.30
2018-09-16T12:22:12.049Z,68.50
2018-09-16T12:24:39.810Z,70.00
2018-09-16T12:27:07.573Z,71.80
2018-09-16T12:29:35.373Z,69.60
2018-09-16T12:32:03.242Z,72.00
2018-09-16T12:34:30.985Z,69.20
2018-09-16T12:36:58.881Z,71.60
2018-09-16T12:39:26.672Z,70.50
2018-09-16T12:41:54.388Z,69.60
2018-09-16T12:44:22.129Z,69.70
2018-09-16T12:46:49.881Z,69.50
2018-09-16T12:49:17.633Z,69.30
2018-09-16T12:51:45.370Z,66.80
2018-09-16T12:54:13.338Z,66.80
2018-09-16T12:56:41.097Z,68.30
2018-09-16T12:59:08.811Z,68.50
2018-09-16T13:01:36.549Z,69.80
2018-09-16T13:04:04.276Z,70.70
2018-09-16T13:06:32.189Z,69.70
2018-09-16T13:08:59.959Z,67.90
2018-09-16T13:11:27.684Z,71.50
2018-09-16T13:13:55.446Z,67.30
2018-09-16T13:16:23.390Z,70.80
2018-09-16T13:18:51.553Z,71.90
2018-09-16T13:21:19.277Z,69.70
2018-09-16T13:23:47.977Z,68.50
2018-09-16T13:26:16.977Z,72.10
2018-09-16T13:28:44.864Z,72.50
2018-09-16T13:31:13.764Z,72.30
2018-09-16T13:33:42.004Z,71.20
2018-09-16T13:36:10.996Z,71.00
2018-09-16T13:38:39.605Z,71.50
2018-09-16T13:41:07.778Z,73.40
2018-09-16T13:43:35.579Z,73.40
2018-09-16T13:46:04.741Z,70.40
2018-09-16T13:48:33.218Z,71.70
2018-09-16T13:51:01.013Z,72.10
2018-09-16T13:53:30.109Z,72.50
2018-09-16T13:55:59.916Z,73.50
2018-09-16T13:58:29.348Z,75.80
2018-09-16T14:00:57.799Z,75.50
2018-09-16T14:03:27.686Z,75.40
2018-09-16T14:05:57.072Z,76.80
2018-09-16T14:08:26.421Z,75.80
2018-09-16T14:10:54.760Z,77.20
2018-09-16T14:13:24.100Z,76.00
2018-09-16T14:15:53.805Z,77.80
2018-09-16T14:18:24.326Z,77.70
2018-09-16T14:20:57.415Z,77.40
2018-09-16T14:23:27.317Z,77.90
2018-09-16T14:25:56.447Z,77.20
2018-09-16T14:28:26.596Z,77.60
2018-09-16T14:30:56.734Z,78.10
2018-09-16T14:33:25.537Z,78.60
2018-09-16T14:35:53.555Z,77.60
2018-09-16T14:38:21.917Z,77.60
2018-09-16T14:40:50.129Z,77.30
2018-09-16T14:43:19.313Z,78.00
2018-09-16T14:45:48.201Z,79.30
2018-09-16T14:48:17.796Z,80.30
2018-09-16T14:50:45.545Z,79.60
2018-09-16T14:53:13.271Z,79.10
2018-09-16T14:55:41.014Z,78.70
2018-09-16T14:58:08.902Z,78.80
2018-09-16T15:00:36.650Z,78.30
2018-09-16T15:03:04.377Z,77.60
2018-09-16T15:05:32.118Z,76.90
2018-09-16T15:07:59.845Z,77.20
2018-09-16T15:10:27.577Z,77.90
2018-09-16T15:12:55.363Z,77.90
2018-09-16T15:15:23.113Z,77.70
2018-09-16T15:17:50.877Z,78.10
2018-09-16T15:20:19.276Z,77.20
2018-09-16T15:22:47.621Z,76.50
2018-09-16T15:25:15.389Z,78.10
2018-09-16T15:27:43.710Z,77.90
2018-09-16T15:30:11.512Z,80.70
2018-09-16T15:32:39.983Z,79.80
2018-09-16T15:35:07.757Z,78.50
2018-09-16T15:37:35.470Z,78.00
2018-09-16T15:40:03.642Z,80.70
2018-09-16T15:42:31.463Z,81.40
2018-09-16T15:44:59.737Z,81.90
2018-09-16T15:47:27.490Z,83.90
2018-09-16T15:49:55.222Z,81.40
2018-09-16T15:52:23.002Z,83.00
2018-09-16T15:54:50.804Z,83.40
2018-09-16T15:57:18.533Z,80.00
2018-09-16T15:59:46.274Z,81.90
2018-09-16T16:02:13.998Z,86.50
2018-09-16T16:04:41.762Z,88.60
2018-09-16T16:07:09.490Z,89.40
2018-09-16T16:09:37.601Z,90.10
2018-09-16T16:12:05.365Z,89.50
2018-09-16T16:14:33.661Z,88.90
2018-09-16T16:17:01.473Z,90.10
2018-09-16T16:19:29.869Z,90.50
2018-09-16T16:21:57.606Z,91.30
2018-09-16T16:24:25.309Z,91.10
2018-09-16T16:26:53.029Z,91.40
2018-09-16T16:29:20.807Z,90.90
2018-09-16T16:31:48.524Z,91.90
2018-09-16T16:34:16.276Z,91.40
2018-09-16T16:36:44.005Z,91.40
2018-09-16T16:39:12.309Z,92.00
2018-09-16T16:41:40.074Z,92.70
2018-09-16T16:44:07.818Z,92.90
2018-09-16T16:46:35.561Z,93.80
2018-09-16T16:49:03.309Z,93.80
2018-09-16T16:51:31.034Z,94.30
2018-09-16T16:53:58.789Z,94.40
2018-09-16T16:56:26.545Z,94.90
2018-09-16T16:58:54.329Z,94.40
2018-09-16T17:01:22.048Z,95.00
2018-09-16T17:03:49.818Z,95.00
2018-09-16T17:06:17.571Z,95.50
2018-09-16T17:08:45.377Z,95.50
2018-09-16T17:11:13.154Z,95.50
2018-09-16T17:13:40.956Z,95.10
2018-09-16T17:16:08.697Z,95.90
2018-09-16T17:18:36.413Z,95.90
2018-09-16T17:21:04.225Z,96.30
2018-09-16T17:23:31.959Z,96.70
2018-09-16T17:25:59.773Z,97.20
2018-09-16T17:28:27.533Z,97.40
2018-09-16T17:30:55.406Z,97.70
2018-09-16T17:33:23.210Z,97.80
2018-09-16T17:35:52.024Z,97.90
2018-09-16T17:38:19.737Z,98.50
2018-09-16T17:40:49.485Z,98.70
2018-09-16T17:43:17.388Z,98.90
2018-09-16T17:45:45.443Z,98.90
2018-09-16T17:48:13.185Z,99.40
2018-09-16T17:50:41.050Z,99.90
2018-09-16T17:53:08.785Z,99.90
2018-09-16T17:55:36.505Z,99.90
2018-09-16T17:58:04.241Z,99.90
2018-09-16T18:00:31.954Z,99.90
2018-09-16T18:02:59.698Z,99.90
2018-09-16T18:05:27.434Z,99.90
2018-09-16T18:07:55.171Z,99.90
2018-09-16T18:10:23.017Z,99.90
2018-09-16T18:12:50.776Z,99.90
2018-09-16T18:15:18.501Z,99.90
2018-09-16T18:17:46.214Z,99.90
2018-09-16T18:20:13.992Z,99.90
2018-09-16T18:22:42.133Z,99.90
2018-09-16T18:25:09.885Z,99.90
2018-09-16T18:27:37.605Z,99.90
2018-09-16T18:30:05.606Z,99.90
2018-09-16T18:32:33.301Z,99.90
2018-09-16T18:35:01.060Z,99.90
2018-09-16T18:37:28.793Z,99.90
2018-09-16T18:39:56.505Z,99.90
2018-09-16T18:42:24.277Z,99.90
2018-09-16T18:44:52.090Z,99.90
2018-09-16T18:47:20.015Z,99.90
2018-09-16T18:49:48.313Z,99.90
2018-09-16T18:52:16.141Z,99.90
2018-09-16T18:54:45.198Z,99.90
2018-09-16T18:57:14.063Z,99.90
2018-09-16T18:59:42.820Z,99.90
2018-09-16T19:02:11.221Z,99.90
2018-09-16T19:04:39.860Z,99.90
2018-09-16T19:07:08.959Z,99.90
2018-09-16T19:09:38.414Z,99.90
2018-09-16T19:12:07.871Z,99.90
2018-09-16T19:14:36.357Z,99.90
2018-09-16T19:17:06.988Z,99.90
2018-09-16T19:19:35.485Z,99.90
2018-09-16T19:22:04.634Z,99.90
2018-09-16T19:24:33.743Z,99.90
2018-09-16T19:27:02.681Z,99.90
2018-09-16T19:29:31.936Z,99.90
2018-09-16T19:32:01.261Z,99.90
2018-09-16T19:34:30.718Z,99.90
2018-09-16T19:36:59.461Z,99.90
2018-09-16T19:39:28.066Z,99.90
2018-09-16T19:41:57.493Z,99.90
2018-09-16T19:44:27.137Z,99.90
2018-09-16T19:46:54.911Z,99.90
2018-09-16T19:49:24.780Z,99.90
2018-09-16T19:51:52.904Z,99.90
2018-09-16T19:54:22.267Z,99.90
2018-09-16T19:56:50.208Z,99.90
2018-09-16T19:59:18.785Z,99.90
2018-09-16T20:01:47.971Z,99.90
2018-09-16T20:04:16.995Z,99.90
2018-09-16T20:06:46.279Z,99.90
2018-09-16T20:09:14.860Z,99.90
2018-09-16T20:11:42.653Z,99.90
2018-09-16T20:14:13.041Z,99.90
2018-09-16T20:16:40.788Z,99.90
2018-09-16T20:19:08.941Z,99.90
2018-09-16T20:21:37.654Z,99.90
2018-09-16T20:24:07.042Z,99.90
2018-09-16T20:26:35.822Z,99.90
2018-09-16T20:29:05.493Z,99.90
2018-09-16T20:31:34.515Z,99.90
2018-09-16T20:34:04.338Z,99.90
2018-09-16T20:36:34.454Z,99.90
2018-09-16T20:39:04.273Z,99.90
2018-09-16T20:41:32.405Z,99.90
2018-09-16T20:44:00.833Z,99.90
2018-09-16T20:46:29.013Z,99.90
2018-09-16T20:48:56.780Z,99.90
2018-09-16T20:51:25.105Z,99.90
2018-09-16T20:53:52.924Z,99.90
2018-09-16T20:56:20.713Z,99.90
2018-09-16T20:58:48.429Z,99.90
2018-09-16T21:01:16.181Z,99.90
2018-09-16T21:03:43.901Z,99.90
2018-09-16T21:06:11.653Z,99.90
2018-09-16T21:08:39.406Z,99.90
2018-09-16T21:11:07.226Z,99.90
2018-09-16T21:13:34.989Z,99.90
2018-09-16T21:16:02.734Z,99.90
2018-09-16T21:18:31.049Z,99.90
2018-09-16T21:20:58.834Z,99.90
2018-09-16T21:23:27.502Z,99.90
2018-09-16T21:25:55.285Z,99.90
2018-09-16T21:28:23.864Z,99.90
2018-09-16T21:30:53.490Z,99.90
2018-09-16T21:33:21.277Z,99.90
2018-09-16T21:35:48.997Z,99.90
2018-09-16T21:38:16.717Z,99.90
2018-09-16T21:40:44.493Z,99.90
2018-09-16T21:43:12.225Z,99.90
2018-09-16T21:45:40.169Z,99.90
2018-09-16T21:48:07.877Z,99.90
2018-09-16T21:50:35.601Z,99.90
2018-09-16T21:53:03.344Z,99.90
2018-09-16T21:55:31.074Z,99.90
2018-09-16T21:57:58.872Z,99.90
2018-09-16T22:00:26.690Z,99.90
2018-09-16T22:02:54.437Z,99.90
2018-09-16T22:05:22.266Z,99.90
2018-09-16T22:07:50.246Z,99.90
2018-09-16T22:10:18.256Z,99.90
2018-09-16T22:12:48.196Z,99.90
2018-09-16T22:15:16.057Z,99.90
2018-09-16T22:17:43.817Z,99.90
2018-09-16T22:20:11.725Z,99.90
2018-09-16T22:22:39.501Z,99.90
2018-09-16T22:25:07.746Z,99.90
2018-09-16T22:27:35.508Z,99.90
2018-09-16T22:30:03.306Z,99.90
2018-09-16T22:32:31.657Z,99.90
2018-09-16T22:34:59.448Z,99.90
2018-09-16T22:37:27.236Z,99.90
2018-09-16T22:39:55.001Z,99.90
2018-09-16T22:42:22.729Z,99.90
2018-09-16T22:44:50.457Z,99.90
2018-09-16T22:47:18.225Z,99.90
2018-09-16T22:49:45.936Z,99.90
2018-09-16T22:52:13.693Z,99.90
2018-09-16T22:54:41.462Z,99.90
2018-09-16T22:57:09.233Z,99.90
2018-09-16T22:59:36.957Z,99.90
2018-09-16T23:02:04.722Z,99.90
2018-09-16T23:04:32.491Z,99.90
2018-09-16T23:07:00.236Z,99.90
2018-09-16T23:09:28.052Z,99.90
2018-09-16T23:11:55.788Z,99.90
2018-09-16T23:14:23.521Z,99.90
2018-09-16T23:16:51.293Z,99.90
2018-09-16T23:19:19.005Z,99.90
2018-09-16T23:21:46.745Z,99.90
2018-09-16T23:24:14.457Z,99.90
2018-09-16T23:26:42.230Z,99.90
2018-09-16T23:29:09.969Z,99.90
2018-09-16T23:31:37.726Z,99.90
2018-09-16T23:34:05.490Z,99.90
2018-09-16T23:36:33.270Z,99.90
2018-09-16T23:39:01.054Z,99.90
2018-09-16T23:41:28.785Z,99.90
2018-09-16T23:43:56.521Z,99.90
2018-09-16T23:46:24.249Z,99.90
2018-09-16T23:48:52.057Z,99.90
2018-09-16T23:51:19.829Z,99.90
2018-09-16T23:53:47.581Z,99.90
2018-09-16T23:56:15.322Z,99.90
2018-09-16T23:58:43.042Z,99.90
